createdAt,value
2022-10-29T00:00:56.840Z,14.46
2022-10-29T00:03:25.274Z,14.47
2022-10-29T00:06:01.246Z,14.49
2022-10-29T00:08:30.804Z,14.53
2022-10-29T00:11:07.048Z,14.41
2022-10-29T00:13:34.623Z,14.35
2022-10-29T00:16:06.929Z,14.41
2022-10-29T00:18:33.889Z,14.33
2022-10-29T00:21:02.432Z,14.34
2022-10-29T00:23:29.248Z,14.32
2022-10-29T00:25:57.274Z,14.33
2022-10-29T00:28:24.216Z,14.36
2022-10-29T00:30:51.203Z,14.35
2022-10-29T00:35:59.487Z,14.34
2022-10-29T00:38:27.479Z,14.28
2022-10-29T00:40:55.320Z,14.28
2022-10-29T00:43:25.284Z,14.29
2022-10-29T00:45:57.681Z,14.30
2022-10-29T00:48:31.653Z,14.33
2022-10-29T00:51:03.615Z,14.34
2022-10-29T00:53:38.758Z,14.31
2022-10-29T00:56:06.708Z,14.27
2022-10-29T00:58:35.194Z,14.22
2022-10-29T01:01:02.602Z,14.09
2022-10-29T01:03:30.941Z,14.03
2022-10-29T01:05:58.378Z,13.97
2022-10-29T01:08:25.290Z,13.97
2022-10-29T01:11:11.727Z,14.04
2022-10-29T01:14:00.426Z,14.06
2022-10-29T01:16:41.978Z,14.07
2022-10-29T01:19:23.311Z,14.10
2022-10-29T01:22:02.640Z,14.08
2022-10-29T01:24:57.015Z,14.06
2022-10-29T01:27:48.058Z,14.10
2022-10-29T01:30:32.612Z,14.01
2022-10-29T01:33:18.136Z,14.00
2022-10-29T01:35:54.590Z,14.02
2022-10-29T01:38:38.353Z,14.05
2022-10-29T01:41:18.051Z,13.98
2022-10-29T01:43:53.459Z,13.98
2022-10-29T01:46:28.773Z,14.00
2022-10-29T01:49:07.777Z,14.03
2022-10-29T01:51:39.251Z,14.06
2022-10-29T01:54:10.766Z,14.08
2022-10-29T01:56:38.117Z,14.08
2022-10-29T01:59:22.883Z,13.95
2022-10-29T02:02:15.781Z,13.85
2022-10-29T02:05:17.391Z,13.76
2022-10-29T02:07:52.243Z,13.75
2022-10-29T02:10:32.717Z,13.77
2022-10-29T02:13:00.188Z,13.82
2022-10-29T02:15:35.284Z,13.88
2022-10-29T02:18:06.406Z,13.92
2022-10-29T02:20:35.721Z,13.96
2022-10-29T02:23:03.197Z,13.97
2022-10-29T02:25:30.161Z,13.97
2022-10-29T02:27:59.508Z,13.96
2022-10-29T02:30:26.490Z,13.84
2022-10-29T02:32:53.966Z,13.85
2022-10-29T02:35:21.139Z,13.77
2022-10-29T02:37:49.746Z,13.76
2022-10-29T02:40:16.797Z,13.70
2022-10-29T02:42:43.981Z,13.73
2022-10-29T02:45:10.985Z,13.78
2022-10-29T02:47:38.673Z,13.80
2022-10-29T02:50:07.450Z,13.82
2022-10-29T02:52:34.271Z,13.83
2022-10-29T02:55:02.805Z,13.83
2022-10-29T02:57:29.554Z,13.82
2022-10-29T02:59:56.361Z,13.76
2022-10-29T03:02:23.483Z,13.64
2022-10-29T03:04:50.300Z,13.45
2022-10-29T03:07:20.036Z,13.30
2022-10-29T03:09:52.273Z,13.27
2022-10-29T03:12:20.706Z,13.34
2022-10-29T03:14:48.055Z,13.40
2022-10-29T03:17:15.058Z,13.37
2022-10-29T03:19:42.929Z,13.34
2022-10-29T03:22:09.665Z,13.33
2022-10-29T03:24:36.766Z,13.35
2022-10-29T03:27:03.834Z,13.39
2022-10-29T03:29:32.393Z,13.35
2022-10-29T03:31:59.296Z,13.40
2022-10-29T03:34:26.057Z,13.47
2022-10-29T03:36:52.893Z,13.45
2022-10-29T03:39:20.092Z,13.51
2022-10-29T03:41:46.882Z,13.56
2022-10-29T03:44:13.573Z,13.47
2022-10-29T03:46:41.889Z,13.32
2022-10-29T03:49:09.205Z,13.23
2022-10-29T03:51:35.928Z,13.08
2022-10-29T03:54:03.066Z,13.19
2022-10-29T03:56:29.849Z,13.31
2022-10-29T03:58:56.623Z,13.42
2022-10-29T04:01:23.930Z,13.44
2022-10-29T04:03:52.080Z,13.38
2022-10-29T04:06:19.073Z,13.32
2022-10-29T04:08:45.853Z,13.38
2022-10-29T04:11:14.099Z,13.48
2022-10-29T04:13:41.272Z,13.56
2022-10-29T04:16:08.185Z,13.62
2022-10-29T04:18:35.224Z,13.62
2022-10-29T04:29:25.076Z,13.65
2022-10-29T04:31:51.793Z,13.64
2022-10-29T04:34:18.729Z,13.67
2022-10-29T04:36:46.792Z,13.72
2022-10-29T04:39:14.372Z,13.70
2022-10-29T04:41:42.923Z,13.76
2022-10-29T04:44:09.662Z,13.75
2022-10-29T04:46:36.396Z,13.70
2022-10-29T04:49:03.620Z,13.59
2022-10-29T04:51:30.843Z,13.63
2022-10-29T04:53:58.948Z,13.58
2022-10-29T04:56:25.655Z,13.40
2022-10-29T04:58:53.251Z,13.37
2022-10-29T05:01:20.527Z,13.36
2022-10-29T05:03:47.509Z,13.40
2022-10-29T05:06:14.215Z,13.44
2022-10-29T05:08:41.049Z,13.46
2022-10-29T05:11:09.402Z,13.46
2022-10-29T05:13:36.150Z,13.46
2022-10-29T05:16:03.158Z,13.43
2022-10-29T05:18:29.968Z,13.45
2022-10-29T05:20:57.517Z,13.47
2022-10-29T05:23:24.474Z,13.48
2022-10-29T05:25:51.382Z,13.49
2022-10-29T05:28:22.426Z,13.51
2022-10-29T05:30:52.022Z,13.54
2022-10-29T05:33:21.731Z,13.54
2022-10-29T05:35:48.812Z,13.52
2022-10-29T05:38:16.840Z,13.49
2022-10-29T05:40:44.118Z,13.48
2022-10-29T05:43:11.094Z,13.45
2022-10-29T05:45:40.037Z,13.40
2022-10-29T05:48:07.939Z,13.38
2022-10-29T05:50:34.974Z,13.28
2022-10-29T05:53:05.221Z,13.25
2022-10-29T05:55:34.793Z,13.24
2022-10-29T05:58:05.853Z,13.22
2022-10-29T06:00:36.504Z,13.19
2022-10-29T06:03:11.946Z,13.13
2022-10-29T06:05:38.946Z,13.13
2022-10-29T06:08:05.974Z,13.07
2022-10-29T06:10:33.313Z,13.08
2022-10-29T06:13:00.059Z,13.09
2022-10-29T06:15:27.068Z,13.11
2022-10-29T06:17:54.267Z,13.15
2022-10-29T06:20:22.610Z,13.15
2022-10-29T06:22:57.296Z,13.21
2022-10-29T06:25:25.076Z,13.16
2022-10-29T06:28:03.585Z,13.17
2022-10-29T06:30:33.083Z,13.24
2022-10-29T06:33:00.882Z,13.36
2022-10-29T06:35:31.277Z,13.46
2022-10-29T06:37:58.475Z,13.59
2022-10-29T06:40:26.094Z,13.66
2022-10-29T06:43:17.869Z,13.91
2022-10-29T06:45:44.918Z,14.09
2022-10-29T06:48:11.629Z,14.30
2022-10-29T06:54:05.391Z,14.37
2022-10-29T06:56:32.404Z,14.62
2022-10-29T06:58:59.656Z,14.94
2022-10-29T07:01:35.805Z,15.32
2022-10-29T07:04:03.763Z,15.67
2022-10-29T07:06:34.002Z,15.92
2022-10-29T07:09:00.799Z,16.13
2022-10-29T07:11:27.862Z,16.35
2022-10-29T07:13:54.732Z,16.50
2022-10-29T07:16:21.768Z,16.40
2022-10-29T07:18:48.900Z,16.08
2022-10-29T07:21:15.732Z,16.05
2022-10-29T07:23:44.201Z,16.24
2022-10-29T07:26:11.055Z,16.61
2022-10-29T07:29:04.209Z,16.90
2022-10-29T07:31:33.398Z,17.17
2022-10-29T07:34:00.233Z,17.53
2022-10-29T07:36:27.178Z,18.07
2022-10-29T07:38:55.661Z,18.45
2022-10-29T07:41:22.648Z,18.73
2022-10-29T07:43:50.065Z,19.21
2022-10-29T07:46:19.010Z,19.81
2022-10-29T07:48:46.080Z,20.07
2022-10-29T07:51:13.078Z,19.59
2022-10-29T07:53:40.990Z,19.53
2022-10-29T07:56:09.746Z,19.15
2022-10-29T07:58:36.533Z,19.08
2022-10-29T08:01:07.342Z,19.16
2022-10-29T08:03:34.129Z,18.92
2022-10-29T08:06:00.870Z,19.36
2022-10-29T08:08:27.983Z,19.92
2022-10-29T08:12:14.678Z,20.38
2022-10-29T08:24:55.832Z,21.61
2022-10-29T08:31:09.510Z,21.49
2022-10-29T08:33:36.741Z,21.42
2022-10-29T08:36:04.154Z,21.38
2022-10-29T08:38:31.021Z,21.32
2022-10-29T08:41:30.396Z,21.12
2022-10-29T08:44:43.633Z,20.95
2022-10-29T08:47:18.458Z,20.90
2022-10-29T08:50:03.126Z,20.68
2022-10-29T08:52:36.730Z,20.61
2022-10-29T08:55:12.855Z,20.58
2022-10-29T08:57:45.738Z,20.43
2022-10-29T09:00:18.692Z,20.30
2022-10-29T09:02:46.155Z,20.24
2022-10-29T09:05:15.584Z,20.66
2022-10-29T09:08:12.223Z,21.75
2022-10-29T09:10:47.157Z,23.09
2022-10-29T09:13:33.186Z,24.05
2022-10-29T09:16:18.919Z,24.88
2022-10-29T09:19:22.254Z,25.63
2022-10-29T09:22:05.288Z,26.26
2022-10-29T09:24:43.343Z,26.81
2022-10-29T09:27:20.353Z,27.45
2022-10-29T09:30:04.282Z,28.11
2022-10-29T09:32:39.902Z,28.43
2022-10-29T09:35:14.325Z,27.74
2022-10-29T09:37:49.390Z,27.83
2022-10-29T09:40:32.489Z,27.56
2022-10-29T09:43:06.080Z,26.96
2022-10-29T09:45:48.902Z,27.33
2022-10-29T09:48:26.974Z,27.05
2022-10-29T09:51:08.213Z,26.55
2022-10-29T09:53:35.900Z,26.71
2022-10-29T09:56:08.533Z,28.06
2022-10-29T09:58:44.102Z,28.94
2022-10-29T10:01:13.629Z,29.45
2022-10-29T10:03:45.177Z,29.70
2022-10-29T10:06:15.020Z,30.46
2022-10-29T10:09:01.469Z,30.75
2022-10-29T10:11:38.855Z,31.04
2022-10-29T10:14:17.620Z,30.76
2022-10-29T10:16:46.723Z,31.43
2022-10-29T10:19:23.030Z,32.14
2022-10-29T10:21:59.056Z,32.74
2022-10-29T10:24:33.930Z,33.07
2022-10-29T10:27:26.230Z,33.03
2022-10-29T10:30:14.766Z,32.98
2022-10-29T10:32:47.342Z,32.37
2022-10-29T10:35:29.276Z,31.35
2022-10-29T10:37:58.713Z,31.72
2022-10-29T10:40:26.892Z,32.55
2022-10-29T10:42:55.929Z,33.12
2022-10-29T10:45:28.984Z,33.36
2022-10-29T10:47:59.436Z,32.61
2022-10-29T10:50:29.898Z,33.34
2022-10-29T10:53:00.159Z,33.68
2022-10-29T10:55:32.702Z,34.08
2022-10-29T10:58:08.885Z,34.43
2022-10-29T11:00:43.089Z,33.35
2022-10-29T11:03:21.409Z,33.88
2022-10-29T11:06:02.766Z,34.26
2022-10-29T11:08:40.189Z,34.00
2022-10-29T11:11:15.489Z,34.10
2022-10-29T11:13:49.926Z,32.29
2022-10-29T11:16:33.995Z,30.40
2022-10-29T11:19:15.013Z,30.34
2022-10-29T11:21:49.254Z,31.29
2022-10-29T11:24:24.908Z,29.29
2022-10-29T11:27:01.915Z,29.39
2022-10-29T11:29:48.955Z,29.65
2022-10-29T11:32:25.517Z,30.12
2022-10-29T11:35:04.912Z,30.32
2022-10-29T11:37:44.517Z,26.52
2022-10-29T11:40:16.519Z,24.91
2022-10-29T11:42:44.038Z,24.90
2022-10-29T11:45:16.619Z,24.44
2022-10-29T11:48:21.508Z,24.59
2022-10-29T11:50:59.864Z,24.07
2022-10-29T11:53:51.218Z,23.89
2022-10-29T11:56:33.291Z,23.88
2022-10-29T11:59:11.772Z,24.13
2022-10-29T12:01:57.082Z,23.94
2022-10-29T12:04:32.884Z,23.88
2022-10-29T12:07:22.416Z,24.37
2022-10-29T12:10:32.113Z,23.49
2022-10-29T12:13:14.343Z,23.82
2022-10-29T12:15:52.468Z,23.83
2022-10-29T12:18:32.275Z,23.77
2022-10-29T12:21:13.462Z,24.17
2022-10-29T12:23:56.874Z,24.13
2022-10-29T12:26:37.486Z,24.35
2022-10-29T12:29:14.285Z,24.54
2022-10-29T12:31:53.525Z,24.93
2022-10-29T12:34:30.841Z,24.61
2022-10-29T12:37:10.243Z,24.29
2022-10-29T12:39:48.601Z,24.34
2022-10-29T12:42:25.153Z,24.37
2022-10-29T12:45:07.303Z,24.51
2022-10-29T12:47:47.958Z,24.76
2022-10-29T12:50:38.866Z,24.53
2022-10-29T12:53:27.156Z,24.73
2022-10-29T12:55:58.478Z,24.68
2022-10-29T12:58:50.624Z,24.84
2022-10-29T13:04:33.937Z,24.78
2022-10-29T13:07:05.322Z,24.89
2022-10-29T13:09:34.064Z,24.75
2022-10-29T13:12:05.714Z,24.80
2022-10-29T13:14:40.231Z,24.79
2022-10-29T13:17:28.449Z,24.88
2022-10-29T13:19:59.947Z,24.83
2022-10-29T13:22:52.152Z,25.03
2022-10-29T13:25:46.351Z,25.10
2022-10-29T13:28:51.968Z,25.21
2022-10-29T13:31:49.104Z,25.41
2022-10-29T13:34:54.771Z,25.63
2022-10-29T13:37:52.972Z,25.85
2022-10-29T13:40:55.436Z,25.86
2022-10-29T13:43:24.078Z,25.91
2022-10-29T13:46:09.865Z,25.91
2022-10-29T13:48:38.633Z,25.87
2022-10-29T13:51:13.963Z,25.88
2022-10-29T13:53:51.463Z,25.71
2022-10-29T13:56:28.534Z,25.45
2022-10-29T13:59:02.214Z,25.37
2022-10-29T14:01:33.674Z,25.30
2022-10-29T14:04:06.178Z,25.33
2022-10-29T14:06:39.284Z,25.30
2022-10-29T14:09:21.763Z,25.28
2022-10-29T14:11:59.689Z,25.41
2022-10-29T14:14:37.168Z,25.42
2022-10-29T14:17:14.546Z,25.44
2022-10-29T14:19:46.930Z,25.44
2022-10-29T14:22:32.915Z,25.48
2022-10-29T14:25:01.429Z,25.45
2022-10-29T14:27:29.499Z,25.45
2022-10-29T14:30:13.504Z,25.33
2022-10-29T14:32:41.829Z,25.25
2022-10-29T14:35:15.539Z,25.15
2022-10-29T14:38:22.623Z,24.92
2022-10-29T14:40:49.589Z,24.86
2022-10-29T14:43:25.294Z,24.77
2022-10-29T14:46:19.013Z,24.67
2022-10-29T14:49:01.522Z,24.27
2022-10-29T14:51:36.089Z,24.19
2022-10-29T14:54:07.255Z,24.01
2022-10-29T14:56:38.199Z,23.97
2022-10-29T14:59:19.011Z,23.93
2022-10-29T15:01:56.995Z,23.79
2022-10-29T15:04:31.810Z,23.64
2022-10-29T15:07:16.798Z,23.55
2022-10-29T15:09:46.200Z,23.32
2022-10-29T15:12:20.960Z,23.24
2022-10-29T15:14:52.853Z,23.13
2022-10-29T15:17:35.974Z,23.00
2022-10-29T15:20:19.496Z,22.83
2022-10-29T15:22:46.526Z,22.67
2022-10-29T15:25:24.055Z,22.61
2022-10-29T15:27:52.528Z,22.54
2022-10-29T15:30:22.473Z,22.51
2022-10-29T15:32:49.599Z,22.46
2022-10-29T15:35:21.635Z,22.38
2022-10-29T15:37:48.514Z,22.28
2022-10-29T15:40:17.447Z,22.19
2022-10-29T15:42:44.606Z,22.10
2022-10-29T15:45:27.070Z,21.99
2022-10-29T15:48:18.312Z,21.89
2022-10-29T15:50:46.654Z,21.81
2022-10-29T15:53:16.614Z,21.73
2022-10-29T15:55:44.336Z,21.71
2022-10-29T15:58:14.624Z,21.66
2022-10-29T16:00:42.128Z,21.59
2022-10-29T16:03:15.153Z,21.53
2022-10-29T16:05:44.589Z,21.51
2022-10-29T16:08:25.302Z,21.49
2022-10-29T16:10:53.388Z,21.45
2022-10-29T16:13:23.041Z,21.39
2022-10-29T16:15:50.055Z,21.34
2022-10-29T16:18:16.947Z,21.27
2022-10-29T16:20:44.045Z,21.10
2022-10-29T16:23:12.080Z,20.72
2022-10-29T16:25:41.313Z,20.50
2022-10-29T16:28:09.237Z,20.36
2022-10-29T16:33:11.123Z,20.28
2022-10-29T16:35:37.943Z,20.27
2022-10-29T16:38:04.963Z,20.25
2022-10-29T16:40:31.808Z,20.10
2022-10-29T16:43:00.538Z,19.94
2022-10-29T16:45:29.725Z,19.85
2022-10-29T16:47:57.954Z,19.84
2022-10-29T16:50:27.622Z,19.84
2022-10-29T16:52:58.038Z,19.76
2022-10-29T16:55:25.567Z,19.64
2022-10-29T16:57:52.414Z,19.54
2022-10-29T17:00:21.316Z,19.48
2022-10-29T17:02:48.061Z,19.40
2022-10-29T17:05:15.800Z,19.36
2022-10-29T17:07:42.679Z,19.32
2022-10-29T17:10:10.221Z,19.34
2022-10-29T17:12:37.080Z,19.37
2022-10-29T17:15:04.781Z,19.38
2022-10-29T17:17:33.101Z,19.36
2022-10-29T17:20:00.015Z,19.35
2022-10-29T17:22:26.794Z,19.30
2022-10-29T17:24:53.678Z,19.24
2022-10-29T17:27:20.443Z,19.22
2022-10-29T17:29:47.192Z,19.13
2022-10-29T17:32:14.728Z,19.05
2022-10-29T17:34:42.847Z,19.00
2022-10-29T17:37:09.877Z,18.96
2022-10-29T17:39:36.834Z,18.91
2022-10-29T17:42:04.510Z,18.89
2022-10-29T17:44:31.376Z,18.80
2022-10-29T17:46:58.411Z,18.62
2022-10-29T17:49:25.643Z,18.39
2022-10-29T17:51:53.894Z,18.29
2022-10-29T17:54:20.928Z,18.17
2022-10-29T17:56:48.223Z,18.04
2022-10-29T17:59:15.124Z,18.00
2022-10-29T18:01:44.589Z,18.00
2022-10-29T18:04:11.533Z,18.03
2022-10-29T18:06:38.633Z,18.09
2022-10-29T18:09:06.854Z,18.15
2022-10-29T18:11:33.983Z,18.23
2022-10-29T18:14:00.825Z,18.27
2022-10-29T18:16:30.094Z,18.29
2022-10-29T18:19:02.853Z,18.32
2022-10-29T18:21:31.467Z,18.33
2022-10-29T18:23:58.353Z,18.32
2022-10-29T18:26:29.428Z,18.31
2022-10-29T18:28:58.903Z,18.30
2022-10-29T18:31:28.872Z,18.28
2022-10-29T18:33:57.506Z,18.25
2022-10-29T18:36:24.754Z,18.26
2022-10-29T18:38:53.919Z,18.17
2022-10-29T18:41:24.924Z,18.08
2022-10-29T18:43:55.111Z,17.99
2022-10-29T18:46:22.181Z,17.93
2022-10-29T18:48:50.098Z,17.92
2022-10-29T18:51:20.854Z,17.94
2022-10-29T18:53:58.204Z,17.92
2022-10-29T18:56:29.916Z,17.89
2022-10-29T18:59:14.357Z,17.88
2022-10-29T19:01:41.351Z,17.85
2022-10-29T19:04:14.677Z,17.82
2022-10-29T19:06:44.116Z,17.81
2022-10-29T19:09:16.702Z,17.77
2022-10-29T19:11:43.949Z,17.65
2022-10-29T19:14:14.109Z,17.33
2022-10-29T19:16:41.427Z,17.09
2022-10-29T19:19:18.527Z,17.10
2022-10-29T19:21:54.542Z,17.03
2022-10-29T19:24:21.880Z,16.97
2022-10-29T19:26:49.460Z,16.88
2022-10-29T19:29:20.179Z,16.82
2022-10-29T19:31:47.530Z,16.72
2022-10-29T19:34:14.478Z,16.59
2022-10-29T19:40:48.081Z,16.63
2022-10-29T19:43:16.458Z,16.64
2022-10-29T19:46:25.276Z,16.66
2022-10-29T19:49:33.887Z,16.71
2022-10-29T19:52:01.246Z,16.74
2022-10-29T19:54:28.040Z,16.78
2022-10-29T19:56:54.856Z,16.78
2022-10-29T20:00:16.779Z,16.68
2022-10-29T20:02:52.097Z,16.53
2022-10-29T20:05:21.723Z,16.40
2022-10-29T20:07:48.808Z,16.38
2022-10-29T20:10:16.577Z,16.40
2022-10-29T20:12:44.172Z,16.44
2022-10-29T20:15:11.886Z,16.48
2022-10-29T20:17:39.168Z,16.37
2022-10-29T20:20:11.593Z,16.31
2022-10-29T20:22:42.833Z,16.26
2022-10-29T20:25:43.890Z,16.24
2022-10-29T20:28:17.968Z,16.31
2022-10-29T20:30:44.906Z,16.35
2022-10-29T20:33:11.684Z,16.33
2022-10-29T20:35:39.994Z,16.25
2022-10-29T20:38:06.983Z,16.19
2022-10-29T20:40:34.650Z,16.04
2022-10-29T20:43:01.507Z,16.03
2022-10-29T20:45:28.608Z,16.08
2022-10-29T20:47:55.857Z,16.06
2022-10-29T20:50:23.170Z,16.01
2022-10-29T20:52:51.423Z,15.96
2022-10-29T20:55:18.370Z,15.93
2022-10-29T20:57:45.175Z,15.92
2022-10-29T21:00:13.643Z,16.00
2022-10-29T21:02:40.526Z,16.07
2022-10-29T21:05:08.621Z,16.11
2022-10-29T21:07:35.590Z,16.14
2022-10-29T21:10:04.633Z,16.19
2022-10-29T21:12:31.465Z,16.22
2022-10-29T21:14:58.278Z,16.23
2022-10-29T21:17:25.127Z,16.27
2022-10-29T21:19:51.888Z,16.29
2022-10-29T21:22:18.605Z,16.30
2022-10-29T21:24:45.892Z,16.31
2022-10-29T21:27:14.037Z,16.25
2022-10-29T21:29:41.150Z,16.22
2022-10-29T21:32:11.395Z,16.17
2022-10-29T21:34:45.037Z,16.13
2022-10-29T21:37:11.868Z,16.10
2022-10-29T21:39:38.573Z,16.06
2022-10-29T21:42:05.648Z,16.01
2022-10-29T21:44:33.804Z,15.88
2022-10-29T21:47:00.545Z,15.78
2022-10-29T21:49:27.263Z,15.76
2022-10-29T21:51:54.036Z,15.73
2022-10-29T21:54:23.007Z,15.73
2022-10-29T21:56:52.500Z,15.73
2022-10-29T21:59:19.271Z,15.74
2022-10-29T22:01:47.401Z,15.74
2022-10-29T22:04:14.183Z,15.66
2022-10-29T22:06:40.919Z,15.66
2022-10-29T22:09:08.238Z,15.68
2022-10-29T22:11:34.971Z,15.68
2022-10-29T22:14:02.189Z,15.68
2022-10-29T22:16:28.971Z,15.66
2022-10-29T22:18:57.255Z,15.66
2022-10-29T22:21:26.365Z,15.66
2022-10-29T22:24:17.129Z,15.64
2022-10-29T22:27:51.181Z,15.65
2022-10-29T22:30:28.681Z,15.66
2022-10-29T22:34:14.572Z,15.58
2022-10-29T22:36:41.647Z,15.24
2022-10-29T22:39:08.685Z,15.24
2022-10-29T22:41:35.703Z,15.28
2022-10-29T22:44:03.948Z,15.24
2022-10-29T22:46:39.233Z,15.01
2022-10-29T22:53:11.529Z,14.56
2022-10-29T22:55:38.522Z,14.60
2022-10-29T22:58:05.240Z,14.65
2022-10-29T23:00:31.984Z,14.73
2022-10-29T23:02:59.079Z,14.81
2022-10-29T23:05:27.339Z,14.86
2022-10-29T23:07:54.148Z,14.90
2022-10-29T23:10:21.409Z,14.93
2022-10-29T23:12:48.092Z,14.97
2022-10-29T23:15:15.489Z,14.99
2022-10-29T23:17:42.234Z,15.04
2022-10-29T23:20:09.431Z,15.04
2022-10-29T23:22:37.556Z,15.02
2022-10-29T23:25:05.870Z,15.02
2022-10-29T23:27:32.577Z,14.97
2022-10-29T23:29:59.518Z,14.97
2022-10-29T23:32:26.740Z,14.87
2022-10-29T23:34:53.545Z,14.82
2022-10-29T23:37:20.279Z,14.84
2022-10-29T23:39:48.566Z,14.83
2022-10-29T23:42:15.304Z,14.79
2022-10-29T23:44:42.258Z,14.69
2022-10-29T23:47:09.066Z,14.57
2022-10-29T23:49:35.805Z,14.49
2022-10-29T23:52:02.757Z,14.49
2022-10-29T23:54:29.513Z,14.52
2022-10-29T23:56:57.594Z,14.55
2022-10-29T23:59:24.342Z,14.49
